CST,Max TemperatureF,Mean TemperatureF,Min TemperatureF,Max Dew PointF,MeanDew PointF,Min DewpointF,Max Humidity, Mean Humidity, Min Humidity, Max Sea Level PressureIn, Mean Sea Level PressureIn, Min Sea Level PressureIn, Max VisibilityMiles, Mean VisibilityMiles, Min VisibilityMiles, Max Wind SpeedMPH, Mean Wind SpeedMPH, Max Gust SpeedMPH,PrecipitationIn, CloudCover, Events, WindDirDegrees
2012-12-1,74,60,46,55,48,45,93,71,37,30.35,30.31,30.28,10,10,7,8,4,,0.00,1,,95
2012-12-2,76,62,48,58,53,47,97,78,46,30.38,30.31,30.26,10,10,5,6,4,,0.00,1,,112
2012-12-3,78,64,49,57,51,48,100,73,35,30.33,30.28,30.25,10,10,6,13,4,,0.00,2,,133
2012-12-4,79,65,50,60,53,48,100,85,37,30.34,30.29,30.23,10,5,0,10,3,,0.00,2,Fog,137
2012-12-5,77,64,50,57,51,47,97,71,37,30.25,30.17,30.11,10,10,9,9,3,,0.00,1,,132
2012-12-6,74,62,50,56,53,48,90,73,51,30.13,30.08,30.03,10,10,10,10,5,,0.00,2,,77
2012-12-7,62,58,54,57,56,54,96,87,80,30.10,30.04,30.01,10,8,4,10,6,,0.00,8,,82
2012-12-8,73,65,57,64,60,55,100,89,66,30.08,30.04,29.99,10,6,1,9,4,,0.04,7,Rain,156
2012-12-9,74,67,59,63,61,56,100,87,53,30.14,30.08,30.00,10,8,2,9,5,,T,6,,163
2012-12-10,79,69,58,66,62,55,100,90,58,30.00,29.91,29.79,10,6,0,18,9,26,0.01,6,Fog-Rain,211
2012-12-11,57,50,43,53,45,38,94,83,73,30.18,30.04,29.90,10,10,7,13,9,,0.06,7,Rain,347
2012-12-12,48,45,41,43,40,38,93,84,71,30.24,30.18,30.12,10,8,4,9,6,,0.08,7,Rain,13
2012-12-13,60,51,42,43,41,39,89,79,51,30.35,30.30,30.24,10,10,7,12,6,,0.00,5,,37
2012-12-14,63,51,39,45,43,37,96,80,52,30.39,30.30,30.19,10,8,2,13,5,16,0.00,3,,73
2012-12-15,66,58,49,52,49,44,89,79,59,30.24,30.16,30.10,10,10,10,8,4,,0.00,2,,118
2012-12-16,72,62,52,65,58,51,100,92,69,30.08,30.01,29.91,10,5,0,21,5,26,T,7,Fog-Rain,157
2012-12-17,65,61,57,62,58,54,100,93,82,29.95,29.86,29.77,10,8,1,18,7,22,0.16,7,Rain,204
2012-12-18,67,55,42,57,47,32,100,77,27,30.08,29.97,29.86,10,8,4,9,7,,0.00,2,,285
2012-12-19,72,56,39,48,41,36,96,67,28,30.15,30.09,30.06,10,10,10,9,2,,0.00,0,,148
2012-12-20,72,58,44,66,55,30,94,82,50,30.12,29.91,29.78,10,7,0,28,13,45,0.00,5,Fog-Rain,219
2012-12-21,53,44,35,30,18,11,60,40,19,30.31,30.22,30.12,10,10,10,24,14,31,0.00,0,,300
2012-12-22,59,45,30,29,19,9,73,45,16,30.40,30.32,30.28,10,10,10,12,6,20,0.00,0,,315
2012-12-23,55,44,33,39,32,27,85,63,38,30.30,30.22,30.12,10,10,10,8,2,,0.00,1,,193
2012-12-24,69,58,47,63,58,41,100,89,74,30.09,29.96,29.90,10,8,0,17,8,25,0.00,6,Fog-Rain,202
2012-12-25,68,63,58,64,61,57,100,95,88,29.98,29.86,29.63,10,5,0,24,7,36,0.48,8,Fog-Rain-Thunderstorm,134
2012-12-26,68,53,37,64,40,29,94,72,61,30.12,29.85,29.61,10,9,2,29,19,39,0.47,7,Rain-Thunderstorm,277
2012-12-27,51,43,35,35,31,29,86,72,50,30.19,30.14,30.10,10,10,10,14,8,21,0.00,3,,328
2012-12-28,54,44,34,47,39,32,93,78,59,30.14,30.00,29.79,10,9,4,13,4,,0.38,3,Rain,109
2012-12-29,51,43,34,50,40,24,100,80,60,30.36,30.04,29.79,10,9,2,22,13,30,0.26,8,Rain,311
2012-12-30,53,41,28,30,26,24,88,65,32,30.51,30.43,30.36,10,10,9,13,7,,0.00,0,,1
2012-12-31,61,47,32,48,40,29,86,69,54,30.42,30.32,30.18,10,10,10,8,4,,0.00,4,,127